Michigantown, Indiana
Current Conditions -  °F | °C
As of 7:15 PM on Friday 24 Oct 2014 (Local Time) from KFKR Reporting Station
Haze Haze  
Wind Chill: 56°   Ceiling: Unl
Heat Index: 56°   Visibility: 2mi
Dew Point: 51°   Wind: 5mph
Humidity: 82%   Direction: 190°S
Pressure: 30.03"   Gusts: NA
Location:  40.33°N, 86.39°W
Report Text: KFKR 242315Z AUTO 19004KT 2SM HZ CLR 13/10 A3003 RMK AO2 VIS 1 1/2V5 T01330103
Loading
Personal Weather Stations






























Interactive Weather Map
Tropical Storm Tracking
New forecast layout! Learn more

10-Day Weather Forecast

Advertisements
Track Severe Weather on mobile